sensor_id;sensor_type;location;lat;lon;timestamp;pressure;altitude;pressure_sealevel;temperature;humidity
50338;BME280;46221;51.178;5.900;2023-02-16T00:01:15;102319.00;;;14.01;62.10
50338;BME280;46221;51.178;5.900;2023-02-16T00:03:42;102307.47;;;13.99;61.87
50338;BME280;46221;51.178;5.900;2023-02-16T00:06:08;102307.53;;;13.97;62.01
50338;BME280;46221;51.178;5.900;2023-02-16T00:08:42;102305.78;;;13.96;61.96
50338;BME280;46221;51.178;5.900;2023-02-16T00:11:16;102317.31;;;13.97;62.10
50338;BME280;46221;51.178;5.900;2023-02-16T00:14:02;102314.72;;;13.94;62.26
50338;BME280;46221;51.178;5.900;2023-02-16T00:16:29;102315.66;;;13.91;62.11
50338;BME280;46221;51.178;5.900;2023-02-16T00:18:56;102320.09;;;13.91;62.15
50338;BME280;46221;51.178;5.900;2023-02-16T00:21:22;102305.91;;;13.88;62.00
50338;BME280;46221;51.178;5.900;2023-02-16T00:23:49;102305.03;;;13.89;62.04
50338;BME280;46221;51.178;5.900;2023-02-16T00:26:24;102306.78;;;13.89;62.03
50338;BME280;46221;51.178;5.900;2023-02-16T00:28:53;102300.66;;;13.85;61.91
50338;BME280;46221;51.178;5.900;2023-02-16T00:31:23;102300.66;;;13.85;62.10
50338;BME280;46221;51.178;5.900;2023-02-16T00:33:52;102304.28;;;13.81;61.95
50338;BME280;46221;51.178;5.900;2023-02-16T00:36:20;102294.50;;;13.83;62.13
50338;BME280;46221;51.178;5.900;2023-02-16T00:38:46;102288.31;;;13.81;62.35
50338;BME280;46221;51.178;5.900;2023-02-16T00:41:18;102278.56;;;13.80;62.15
50338;BME280;46221;51.178;5.900;2023-02-16T00:44:31;102288.41;;;13.75;62.15
50338;BME280;46221;51.178;5.900;2023-02-16T00:47:09;102278.69;;;13.73;62.27
50338;BME280;46221;51.178;5.900;2023-02-16T00:49:40;102284.03;;;13.73;62.76
50338;BME280;46221;51.178;5.900;2023-02-16T00:52:36;102282.25;;;13.73;62.25
50338;BME280;46221;51.178;5.900;2023-02-16T00:55:12;102291.13;;;13.72;62.50
50338;BME280;46221;51.178;5.900;2023-02-16T01:00:34;102294.72;;;13.71;62.56
50338;BME280;46221;51.178;5.900;2023-02-16T01:03:04;102286.72;;;13.71;62.43
50338;BME280;46221;51.178;5.900;2023-02-16T01:05:31;102288.53;;;13.69;62.48
50338;BME280;46221;51.178;5.900;2023-02-16T01:07:58;102293.88;;;13.69;62.53
50338;BME280;46221;51.178;5.900;2023-02-16T01:10:44;102291.25;;;13.66;62.38
50338;BME280;46221;51.178;5.900;2023-02-16T01:13:27;102279.78;;;13.64;62.62
50338;BME280;46221;51.178;5.900;2023-02-16T01:15:54;102287.72;;;13.65;62.39
50338;BME280;46221;51.178;5.900;2023-02-16T01:18:21;102280.59;;;13.66;62.70
50338;BME280;46221;51.178;5.900;2023-02-16T01:20:48;102290.44;;;13.64;62.73
50338;BME280;46221;51.178;5.900;2023-02-16T01:23:14;102276.25;;;13.62;62.76
50338;BME280;46221;51.178;5.900;2023-02-16T01:25:41;102274.50;;;13.61;62.58
50338;BME280;46221;51.178;5.900;2023-02-16T01:28:20;102280.69;;;13.63;62.32
50338;BME280;46221;51.178;5.900;2023-02-16T01:30:48;102287.78;;;13.62;62.75
50338;BME280;46221;51.178;5.900;2023-02-16T01:33:14;102286.97;;;13.59;62.51
50338;BME280;46221;51.178;5.900;2023-02-16T01:35:41;102290.50;;;13.61;62.67
50338;BME280;46221;51.178;5.900;2023-02-16T01:38:20;102283.41;;;13.60;62.58
50338;BME280;46221;51.178;5.900;2023-02-16T01:43:44;102280.81;;;13.57;62.44
50338;BME280;46221;51.178;5.900;2023-02-16T01:46:38;102283.47;;;13.57;62.51
50338;BME280;46221;51.178;5.900;2023-02-16T01:49:13;102283.47;;;13.57;62.80
50338;BME280;46221;51.178;5.900;2023-02-16T01:51:51;102285.22;;;13.58;62.66
50338;BME280;46221;51.178;5.900;2023-02-16T01:54:30;102275.47;;;13.57;62.79
50338;BME280;46221;51.178;5.900;2023-02-16T01:57:33;102273.75;;;13.54;62.22
50338;BME280;46221;51.178;5.900;2023-02-16T02:02:49;102262.28;;;13.51;62.77
50338;BME280;46221;51.178;5.900;2023-02-16T02:05:21;102260.44;;;13.54;62.80
50338;BME280;46221;51.178;5.900;2023-02-16T02:08:14;102259.56;;;13.54;62.86
50338;BME280;46221;51.178;5.900;2023-02-16T02:11:14;102259.59;;;13.51;62.72
50338;BME280;46221;51.178;5.900;2023-02-16T02:13:50;102249.00;;;13.48;62.51
50338;BME280;46221;51.178;5.900;2023-02-16T02:16:20;102252.56;;;13.48;62.86
50338;BME280;46221;51.178;5.900;2023-02-16T02:18:47;102254.34;;;13.48;63.19
50338;BME280;46221;51.178;5.900;2023-02-16T02:29:55;102221.56;;;13.42;62.62
50338;BME280;46221;51.178;5.900;2023-02-16T02:33:00;102216.25;;;13.42;62.48
50338;BME280;46221;51.178;5.900;2023-02-16T02:35:57;102211.00;;;13.39;62.65
50338;BME280;46221;51.178;5.900;2023-02-16T02:41:36;102219.88;;;13.40;62.72
50338;BME280;46221;51.178;5.900;2023-02-16T02:44:23;102218.09;;;13.39;62.79
50338;BME280;46221;51.178;5.900;2023-02-16T02:46:52;102217.22;;;13.40;62.84
50338;BME280;46221;51.178;5.900;2023-02-16T02:49:20;102214.56;;;13.38;63.07
50338;BME280;46221;51.178;5.900;2023-02-16T02:51:47;102209.22;;;13.38;62.71
50338;BME280;46221;51.178;5.900;2023-02-16T02:54:23;102208.34;;;13.38;62.42
50338;BME280;46221;51.178;5.900;2023-02-16T03:00:12;102207.53;;;13.34;62.24
50338;BME280;46221;51.178;5.900;2023-02-16T03:03:08;102208.53;;;13.30;62.74
50338;BME280;46221;51.178;5.900;2023-02-16T03:05:38;102211.19;;;13.30;62.73
50338;BME280;46221;51.178;5.900;2023-02-16T03:08:11;102217.34;;;13.32;62.55
50338;BME280;46221;51.178;5.900;2023-02-16T03:10:47;102201.34;;;13.32;62.61
50338;BME280;46221;51.178;5.900;2023-02-16T03:13:45;102195.25;;;13.27;62.35
50338;BME280;46221;51.178;5.900;2023-02-16T03:16:20;102198.84;;;13.26;62.67
50338;BME280;46221;51.178;5.900;2023-02-16T03:18:48;102195.28;;;13.26;62.74
50338;BME280;46221;51.178;5.900;2023-02-16T03:21:34;102191.75;;;13.25;62.87
50338;BME280;46221;51.178;5.900;2023-02-16T03:24:24;102194.41;;;13.24;62.76
50338;BME280;46221;51.178;5.900;2023-02-16T03:27:12;102186.44;;;13.22;62.88
50338;BME280;46221;51.178;5.900;2023-02-16T03:30:00;102180.25;;;13.22;62.85
50338;BME280;46221;51.178;5.900;2023-02-16T03:32:27;102181.97;;;13.23;63.01
50338;BME280;46221;51.178;5.900;2023-02-16T03:34:54;102175.78;;;13.22;62.88
50338;BME280;46221;51.178;5.900;2023-02-16T03:37:20;102180.25;;;13.22;62.87
50338;BME280;46221;51.178;5.900;2023-02-16T03:39:48;102181.97;;;13.23;62.49
50338;BME280;46221;51.178;5.900;2023-02-16T03:42:33;102171.50;;;13.15;62.83
50338;BME280;46221;51.178;5.900;2023-02-16T03:44:59;102170.56;;;13.16;62.92
50338;BME280;46221;51.178;5.900;2023-02-16T03:47:26;102182.09;;;13.18;63.15
50338;BME280;46221;51.178;5.900;2023-02-16T03:49:52;102184.75;;;13.18;62.90
50338;BME280;46221;51.178;5.900;2023-02-16T03:52:19;102184.75;;;13.18;63.02
50338;BME280;46221;51.178;5.900;2023-02-16T03:54:45;102183.00;;;13.17;62.70
50338;BME280;46221;51.178;5.900;2023-02-16T03:57:11;102181.22;;;13.16;62.80
50338;BME280;46221;51.178;5.900;2023-02-16T03:59:38;102186.59;;;13.14;62.32
50338;BME280;46221;51.178;5.900;2023-02-16T04:02:04;102183.97;;;13.13;62.90
50338;BME280;46221;51.178;5.900;2023-02-16T04:04:31;102187.53;;;13.12;62.70
50338;BME280;46221;51.178;5.900;2023-02-16T04:06:57;102180.41;;;13.12;62.71
50338;BME280;46221;51.178;5.900;2023-02-16T04:09:24;102184.91;;;13.09;62.63
50338;BME280;46221;51.178;5.900;2023-02-16T04:11:50;102181.44;;;13.07;62.63
50338;BME280;46221;51.178;5.900;2023-02-16T04:14:35;102185.88;;;13.06;62.99
50338;BME280;46221;51.178;5.900;2023-02-16T04:17:02;102185.88;;;13.05;62.78
50338;BME280;46221;51.178;5.900;2023-02-16T04:19:29;102186.75;;;13.05;63.04
50338;BME280;46221;51.178;5.900;2023-02-16T04:21:55;102177.00;;;13.06;62.97
50338;BME280;46221;51.178;5.900;2023-02-16T04:24:22;102174.31;;;13.06;63.01
50338;BME280;46221;51.178;5.900;2023-02-16T04:26:48;102174.31;;;13.06;62.69
50338;BME280;46221;51.178;5.900;2023-02-16T04:29:15;102178.81;;;13.04;62.79
50338;BME280;46221;51.178;5.900;2023-02-16T04:31:41;102188.56;;;13.05;62.92
50338;BME280;46221;51.178;5.900;2023-02-16T04:34:08;102177.91;;;13.05;62.74
50338;BME280;46221;51.178;5.900;2023-02-16T04:36:34;102170.88;;;13.01;62.85
50338;BME280;46221;51.178;5.900;2023-02-16T04:39:01;102181.53;;;13.01;62.74
50338;BME280;46221;51.178;5.900;2023-02-16T04:41:28;102193.94;;;13.02;63.09
50338;BME280;46221;51.178;5.900;2023-02-16T04:43:54;102194.84;;;12.99;62.77
50338;BME280;46221;51.178;5.900;2023-02-16T04:46:20;102188.69;;;12.97;62.90
50338;BME280;46221;51.178;5.900;2023-02-16T04:48:47;102193.97;;;12.99;62.93
50338;BME280;46221;51.178;5.900;2023-02-16T04:51:14;102196.66;;;12.99;62.87
50338;BME280;46221;51.178;5.900;2023-02-16T04:53:40;102191.41;;;12.94;62.73
50338;BME280;46221;51.178;5.900;2023-02-16T04:56:09;102201.97;;;12.99;62.76
50338;BME280;46221;51.178;5.900;2023-02-16T04:58:36;102197.56;;;12.96;62.96
50338;BME280;46221;51.178;5.900;2023-02-16T05:01:02;102199.34;;;12.97;62.88
50338;BME280;46221;51.178;5.900;2023-02-16T05:03:30;102190.44;;;12.98;63.01
50338;BME280;46221;51.178;5.900;2023-02-16T05:05:56;102192.25;;;12.98;62.96
50338;BME280;46221;51.178;5.900;2023-02-16T05:08:23;102187.78;;;12.98;62.94
50338;BME280;46221;51.178;5.900;2023-02-16T05:10:49;102179.84;;;12.97;63.03
50338;BME280;46221;51.178;5.900;2023-02-16T05:13:36;102178.94;;;12.96;63.08
50338;BME280;46221;51.178;5.900;2023-02-16T05:16:23;102168.28;;;12.96;62.75
50338;BME280;46221;51.178;5.900;2023-02-16T05:18:49;102173.59;;;12.98;62.52
50338;BME280;46221;51.178;5.900;2023-02-16T05:21:16;102175.41;;;12.95;62.82
50338;BME280;46221;51.178;5.900;2023-02-16T05:26:24;102183.34;;;12.99;62.62
50338;BME280;46221;51.178;5.900;2023-02-16T05:28:51;102178.00;;;12.99;63.05
50338;BME280;46221;51.178;5.900;2023-02-16T05:31:17;102188.66;;;12.99;62.71
50338;BME280;46221;51.178;5.900;2023-02-16T05:33:44;102180.72;;;12.97;62.76
50338;BME280;46221;51.178;5.900;2023-02-16T05:36:10;102176.22;;;13.01;63.02
50338;BME280;46221;51.178;5.900;2023-02-16T05:38:37;102182.41;;;13.01;62.82
50338;BME280;46221;51.178;5.900;2023-02-16T05:41:03;102185.03;;;13.03;62.92
50338;BME280;46221;51.178;5.900;2023-02-16T05:43:30;102179.69;;;13.03;62.90
50338;BME280;46221;51.178;5.900;2023-02-16T05:45:57;102184.16;;;13.02;62.56
50338;BME280;46221;51.178;5.900;2023-02-16T05:48:24;102191.25;;;13.03;62.91
50338;BME280;46221;51.178;5.900;2023-02-16T05:50:53;102188.56;;;13.05;62.50
50338;BME280;46221;51.178;5.900;2023-02-16T05:53:20;102187.69;;;13.04;62.38
50338;BME280;46221;51.178;5.900;2023-02-16T05:55:46;102179.66;;;13.06;62.51
50338;BME280;46221;51.178;5.900;2023-02-16T05:58:15;102170.84;;;13.04;62.68
50338;BME280;46221;51.178;5.900;2023-02-16T06:00:41;102174.31;;;13.06;62.54
50338;BME280;46221;51.178;5.900;2023-02-16T06:03:08;102172.53;;;13.08;62.46
50338;BME280;46221;51.178;5.900;2023-02-16T06:05:35;102165.47;;;13.07;62.55
50338;BME280;46221;51.178;5.900;2023-02-16T06:08:01;102161.94;;;13.05;62.24
50338;BME280;46221;51.178;5.900;2023-02-16T06:10:28;102145.97;;;13.05;62.16
50338;BME280;46221;51.178;5.900;2023-02-16T06:12:54;102151.28;;;13.05;62.04
50338;BME280;46221;51.178;5.900;2023-02-16T06:15:20;102153.03;;;13.06;61.97
50338;BME280;46221;51.178;5.900;2023-02-16T06:17:47;102151.22;;;13.08;62.41
50338;BME280;46221;51.178;5.900;2023-02-16T06:20:13;102163.63;;;13.09;61.98
50338;BME280;46221;51.178;5.900;2023-02-16T06:22:40;102167.16;;;13.11;62.22
50338;BME280;46221;51.178;5.900;2023-02-16T06:25:06;102167.16;;;13.11;62.16
50338;BME280;46221;51.178;5.900;2023-02-16T06:27:33;59360.63;;;-145.57;100.00
50338;BME280;46221;51.178;5.900;2023-02-16T06:29:59;59360.63;;;-145.57;100.00
50338;BME280;46221;51.178;5.900;2023-02-16T06:32:27;59360.63;;;-145.57;100.00
50338;BME280;46221;51.178;5.900;2023-02-16T06:34:54;59360.63;;;-145.57;100.00
50338;BME280;46221;51.178;5.900;2023-02-16T06:37:20;59360.63;;;-145.57;100.00
50338;BME280;46221;51.178;5.900;2023-02-16T06:39:47;59360.63;;;-145.57;100.00
50338;BME280;46221;51.178;5.900;2023-02-16T06:42:13;59360.63;;;-145.57;100.00
50338;BME280;46221;51.178;5.900;2023-02-16T06:44:40;59360.63;;;-145.57;100.00
50338;BME280;46221;51.178;5.900;2023-02-16T06:47:09;59360.63;;;-145.57;100.00
50338;BME280;46221;51.178;5.900;2023-02-16T06:49:36;59360.63;;;-145.57;100.00
50338;BME280;46221;51.178;5.900;2023-02-16T06:52:02;59360.63;;;-145.57;100.00
50338;BME280;46221;51.178;5.900;2023-02-16T06:54:29;59360.63;;;-145.57;100.00
50338;BME280;46221;51.178;5.900;2023-02-16T06:56:56;59360.63;;;-145.57;100.00
50338;BME280;46221;51.178;5.900;2023-02-16T06:59:22;59360.63;;;-145.57;100.00
50338;BME280;46221;51.178;5.900;2023-02-16T07:01:49;59360.63;;;-145.57;100.00
50338;BME280;46221;51.178;5.900;2023-02-16T07:04:15;59360.63;;;-145.57;100.00
50338;BME280;46221;51.178;5.900;2023-02-16T07:06:41;59360.63;;;-145.57;100.00
50338;BME280;46221;51.178;5.900;2023-02-16T07:09:08;59360.63;;;-145.57;100.00
50338;BME280;46221;51.178;5.900;2023-02-16T07:11:37;59360.63;;;-145.57;100.00
50338;BME280;46221;51.178;5.900;2023-02-16T07:14:04;59360.63;;;-145.57;100.00
50338;BME280;46221;51.178;5.900;2023-02-16T07:16:30;59360.63;;;-145.57;100.00
50338;BME280;46221;51.178;5.900;2023-02-16T07:18:57;59360.63;;;-145.57;100.00
50338;BME280;46221;51.178;5.900;2023-02-16T07:21:24;59360.63;;;-145.57;100.00
50338;BME280;46221;51.178;5.900;2023-02-16T07:23:51;59360.63;;;-145.57;100.00
50338;BME280;46221;51.178;5.900;2023-02-16T07:26:18;59360.63;;;-145.57;100.00
50338;BME280;46221;51.178;5.900;2023-02-16T07:28:44;59360.63;;;-145.57;100.00
50338;BME280;46221;51.178;5.900;2023-02-16T07:31:13;59360.63;;;-145.57;100.00
50338;BME280;46221;51.178;5.900;2023-02-16T07:33:40;59360.63;;;-145.57;100.00
50338;BME280;46221;51.178;5.900;2023-02-16T07:36:08;59360.63;;;-145.57;100.00
50338;BME280;46221;51.178;5.900;2023-02-16T07:38:35;59360.63;;;-145.57;100.00
50338;BME280;46221;51.178;5.900;2023-02-16T07:41:01;59360.63;;;-145.57;100.00
50338;BME280;46221;51.178;5.900;2023-02-16T07:43:29;59360.63;;;-145.57;100.00
50338;BME280;46221;51.178;5.900;2023-02-16T07:45:56;59360.63;;;-145.57;100.00
50338;BME280;46221;51.178;5.900;2023-02-16T07:48:22;59360.63;;;-145.57;100.00
50338;BME280;46221;51.178;5.900;2023-02-16T07:50:49;59360.63;;;-145.57;100.00
50338;BME280;46221;51.178;5.900;2023-02-16T07:53:15;59360.63;;;-145.57;100.00
50338;BME280;46221;51.178;5.900;2023-02-16T07:55:43;59360.63;;;-145.57;100.00
50338;BME280;46221;51.178;5.900;2023-02-16T07:58:11;59360.63;;;-145.57;100.00
50338;BME280;46221;51.178;5.900;2023-02-16T08:03:22;59360.63;;;-145.57;100.00
50338;BME280;46221;51.178;5.900;2023-02-16T08:05:49;59360.63;;;-145.57;100.00
50338;BME280;46221;51.178;5.900;2023-02-16T08:08:15;59360.63;;;-145.57;100.00
50338;BME280;46221;51.178;5.900;2023-02-16T08:10:42;59360.63;;;-145.57;100.00
50338;BME280;46221;51.178;5.900;2023-02-16T08:13:08;59360.63;;;-145.57;100.00
50338;BME280;46221;51.178;5.900;2023-02-16T08:15:34;59360.63;;;-145.57;100.00
50338;BME280;46221;51.178;5.900;2023-02-16T08:18:01;59360.63;;;-145.57;100.00
50338;BME280;46221;51.178;5.900;2023-02-16T08:20:27;59360.63;;;-145.57;100.00
50338;BME280;46221;51.178;5.900;2023-02-16T08:23:14;59360.63;;;-145.57;100.00
50338;BME280;46221;51.178;5.900;2023-02-16T08:25:40;59360.63;;;-145.57;100.00
50338;BME280;46221;51.178;5.900;2023-02-16T08:28:06;59360.63;;;-145.57;100.00
50338;BME280;46221;51.178;5.900;2023-02-16T08:30:33;59360.63;;;-145.57;100.00
50338;BME280;46221;51.178;5.900;2023-02-16T08:33:00;59360.63;;;-145.57;100.00
50338;BME280;46221;51.178;5.900;2023-02-16T08:35:27;59360.63;;;-145.57;100.00
50338;BME280;46221;51.178;5.900;2023-02-16T08:37:58;59360.63;;;-145.57;100.00
50338;BME280;46221;51.178;5.900;2023-02-16T08:40:24;59360.63;;;-145.57;100.00
50338;BME280;46221;51.178;5.900;2023-02-16T08:42:51;59360.63;;;-145.57;100.00
50338;BME280;46221;51.178;5.900;2023-02-16T08:45:18;59360.63;;;-145.57;100.00
50338;BME280;46221;51.178;5.900;2023-02-16T08:47:44;59360.63;;;-145.57;100.00
50338;BME280;46221;51.178;5.900;2023-02-16T08:50:11;59360.63;;;-145.57;100.00
50338;BME280;46221;51.178;5.900;2023-02-16T08:52:37;59360.63;;;-145.57;100.00
50338;BME280;46221;51.178;5.900;2023-02-16T08:55:04;59360.63;;;-145.57;100.00
50338;BME280;46221;51.178;5.900;2023-02-16T08:57:34;59360.63;;;-145.57;100.00
50338;BME280;46221;51.178;5.900;2023-02-16T09:00:01;59360.63;;;-145.57;100.00
50338;BME280;46221;51.178;5.900;2023-02-16T09:02:46;59360.63;;;-145.57;100.00
50338;BME280;46221;51.178;5.900;2023-02-16T09:05:12;59360.63;;;-145.57;100.00
50338;BME280;46221;51.178;5.900;2023-02-16T09:07:39;59360.63;;;-145.57;100.00
50338;BME280;46221;51.178;5.900;2023-02-16T09:10:06;59360.63;;;-145.57;100.00
50338;BME280;46221;51.178;5.900;2023-02-16T09:12:33;59360.63;;;-145.57;100.00
50338;BME280;46221;51.178;5.900;2023-02-16T09:15:00;59360.63;;;-145.57;100.00
50338;BME280;46221;51.178;5.900;2023-02-16T09:17:28;59360.63;;;-145.57;100.00
50338;BME280;46221;51.178;5.900;2023-02-16T09:19:54;59360.63;;;-145.57;100.00
50338;BME280;46221;51.178;5.900;2023-02-16T09:22:21;59360.63;;;-145.57;100.00
50338;BME280;46221;51.178;5.900;2023-02-16T09:24:47;59360.63;;;-145.57;100.00
50338;BME280;46221;51.178;5.900;2023-02-16T09:27:14;59360.63;;;-145.57;100.00
50338;BME280;46221;51.178;5.900;2023-02-16T09:29:43;59360.63;;;-145.57;100.00
50338;BME280;46221;51.178;5.900;2023-02-16T09:32:09;59360.63;;;-145.57;100.00
50338;BME280;46221;51.178;5.900;2023-02-16T09:34:36;59360.63;;;-145.57;100.00
50338;BME280;46221;51.178;5.900;2023-02-16T09:37:03;59360.63;;;-145.57;100.00
50338;BME280;46221;51.178;5.900;2023-02-16T09:39:29;59360.63;;;-145.57;100.00
50338;BME280;46221;51.178;5.900;2023-02-16T09:44:47;59360.63;;;-145.57;100.00
50338;BME280;46221;51.178;5.900;2023-02-16T09:47:24;59360.63;;;-145.57;100.00
50338;BME280;46221;51.178;5.900;2023-02-16T09:49:55;59360.63;;;-145.57;100.00
50338;BME280;46221;51.178;5.900;2023-02-16T09:52:37;59360.63;;;-145.57;100.00
50338;BME280;46221;51.178;5.900;2023-02-16T09:55:10;59360.63;;;-145.57;100.00
50338;BME280;46221;51.178;5.900;2023-02-16T09:58:00;59360.63;;;-145.57;100.00
50338;BME280;46221;51.178;5.900;2023-02-16T10:08:32;59360.63;;;-145.57;100.00
50338;BME280;46221;51.178;5.900;2023-02-16T10:14:04;59360.63;;;-145.57;100.00
50338;BME280;46221;51.178;5.900;2023-02-16T10:16:40;59360.63;;;-145.57;100.00
50338;BME280;46221;51.178;5.900;2023-02-16T10:19:21;59360.63;;;-145.57;100.00
50338;BME280;46221;51.178;5.900;2023-02-16T10:21:53;59360.63;;;-145.57;100.00
50338;BME280;46221;51.178;5.900;2023-02-16T10:24:23;59360.63;;;-145.57;100.00
50338;BME280;46221;51.178;5.900;2023-02-16T10:26:58;59360.63;;;-145.57;100.00
50338;BME280;46221;51.178;5.900;2023-02-16T10:29:28;59360.63;;;-145.57;100.00
50338;BME280;46221;51.178;5.900;2023-02-16T10:32:24;59360.63;;;-145.57;100.00
50338;BME280;46221;51.178;5.900;2023-02-16T10:40:26;59360.63;;;-145.57;100.00
50338;BME280;46221;51.178;5.900;2023-02-16T10:43:10;59360.63;;;-145.57;100.00
50338;BME280;46221;51.178;5.900;2023-02-16T10:45:52;59360.63;;;-145.57;100.00
50338;BME280;46221;51.178;5.900;2023-02-16T10:48:20;59360.63;;;-145.57;100.00
50338;BME280;46221;51.178;5.900;2023-02-16T10:53:39;59360.63;;;-145.57;100.00
50338;BME280;46221;51.178;5.900;2023-02-16T10:59:05;59360.63;;;-145.57;100.00
50338;BME280;46221;51.178;5.900;2023-02-16T11:01:36;59360.63;;;-145.57;100.00
50338;BME280;46221;51.178;5.900;2023-02-16T11:04:04;59360.63;;;-145.57;100.00
50338;BME280;46221;51.178;5.900;2023-02-16T11:06:31;59360.63;;;-145.57;100.00
50338;BME280;46221;51.178;5.900;2023-02-16T11:09:01;59360.63;;;-145.57;100.00
50338;BME280;46221;51.178;5.900;2023-02-16T11:11:36;59360.63;;;-145.57;100.00
50338;BME280;46221;51.178;5.900;2023-02-16T11:14:07;59360.63;;;-145.57;100.00
50338;BME280;46221;51.178;5.900;2023-02-16T11:16:43;59360.63;;;-145.57;100.00
50338;BME280;46221;51.178;5.900;2023-02-16T11:19:21;59360.63;;;-145.57;100.00
50338;BME280;46221;51.178;5.900;2023-02-16T11:21:51;59360.63;;;-145.57;100.00
50338;BME280;46221;51.178;5.900;2023-02-16T11:24:26;59360.63;;;-145.57;100.00
50338;BME280;46221;51.178;5.900;2023-02-16T11:29:26;59360.63;;;-145.57;100.00
50338;BME280;46221;51.178;5.900;2023-02-16T11:31:53;59360.63;;;-145.57;100.00
50338;BME280;46221;51.178;5.900;2023-02-16T11:34:28;59360.63;;;-145.57;100.00
50338;BME280;46221;51.178;5.900;2023-02-16T11:37:39;59360.63;;;-145.57;100.00
50338;BME280;46221;51.178;5.900;2023-02-16T11:39:49;59360.63;;;-145.57;100.00
50338;BME280;46221;51.178;5.900;2023-02-16T11:42:37;59360.63;;;-145.57;100.00
50338;BME280;46221;51.178;5.900;2023-02-16T11:45:06;59360.63;;;-145.57;100.00
50338;BME280;46221;51.178;5.900;2023-02-16T11:47:36;59360.63;;;-145.57;100.00
50338;BME280;46221;51.178;5.900;2023-02-16T11:50:23;59360.63;;;-145.57;100.00
50338;BME280;46221;51.178;5.900;2023-02-16T11:52:54;59360.63;;;-145.57;100.00
50338;BME280;46221;51.178;5.900;2023-02-16T11:55:28;59360.63;;;-145.57;100.00
50338;BME280;46221;51.178;5.900;2023-02-16T11:58:20;59360.63;;;-145.57;100.00
50338;BME280;46221;51.178;5.900;2023-02-16T12:07:11;59360.63;;;-145.57;100.00
50338;BME280;46221;51.178;5.900;2023-02-16T12:12:18;59360.63;;;-145.57;100.00
50338;BME280;46221;51.178;5.900;2023-02-16T12:15:19;59360.63;;;-145.57;100.00
50338;BME280;46221;51.178;5.900;2023-02-16T12:32:35;59360.63;;;-145.57;100.00
50338;BME280;46221;51.178;5.900;2023-02-16T12:35:31;59360.63;;;-145.57;100.00
50338;BME280;46221;51.178;5.900;2023-02-16T12:46:30;59360.63;;;-145.57;100.00
50338;BME280;46221;51.178;5.900;2023-02-16T12:49:19;59360.63;;;-145.57;100.00
50338;BME280;46221;51.178;5.900;2023-02-16T12:51:59;59360.63;;;-145.57;100.00
50338;BME280;46221;51.178;5.900;2023-02-16T12:54:36;59360.63;;;-145.57;100.00
50338;BME280;46221;51.178;5.900;2023-02-16T12:57:15;59360.63;;;-145.57;100.00
50338;BME280;46221;51.178;5.900;2023-02-16T12:59:50;59360.63;;;-145.57;100.00
50338;BME280;46221;51.178;5.900;2023-02-16T13:02:49;59360.63;;;-145.57;100.00
50338;BME280;46221;51.178;5.900;2023-02-16T13:05:22;59360.63;;;-145.57;100.00
50338;BME280;46221;51.178;5.900;2023-02-16T13:11:20;59360.63;;;-145.57;100.00
50338;BME280;46221;51.178;5.900;2023-02-16T13:13:50;59360.63;;;-145.57;100.00
50338;BME280;46221;51.178;5.900;2023-02-16T13:18:56;59360.63;;;-145.57;100.00
50338;BME280;46221;51.178;5.900;2023-02-16T13:21:38;59360.63;;;-145.57;100.00
50338;BME280;46221;51.178;5.900;2023-02-16T13:24:45;59360.63;;;-145.57;100.00
50338;BME280;46221;51.178;5.900;2023-02-16T13:27:35;59360.63;;;-145.57;100.00
50338;BME280;46221;51.178;5.900;2023-02-16T13:30:32;59360.63;;;-145.57;100.00
50338;BME280;46221;51.178;5.900;2023-02-16T13:35:39;59360.63;;;-145.57;100.00
50338;BME280;46221;51.178;5.900;2023-02-16T13:44:14;59360.63;;;-145.57;100.00
50338;BME280;46221;51.178;5.900;2023-02-16T13:46:44;59360.63;;;-145.57;100.00
50338;BME280;46221;51.178;5.900;2023-02-16T13:49:38;59360.63;;;-145.57;100.00
50338;BME280;46221;51.178;5.900;2023-02-16T13:52:32;59360.63;;;-145.57;100.00
50338;BME280;46221;51.178;5.900;2023-02-16T13:54:59;59360.63;;;-145.57;100.00
50338;BME280;46221;51.178;5.900;2023-02-16T14:03:32;59360.63;;;-145.57;100.00
50338;BME280;46221;51.178;5.900;2023-02-16T14:06:28;59360.63;;;-145.57;100.00
50338;BME280;46221;51.178;5.900;2023-02-16T14:17:23;59360.63;;;-145.57;100.00
50338;BME280;46221;51.178;5.900;2023-02-16T14:20:04;59360.63;;;-145.57;100.00
50338;BME280;46221;51.178;5.900;2023-02-16T14:27:57;59360.63;;;-145.57;100.00
50338;BME280;46221;51.178;5.900;2023-02-16T14:30:34;59360.63;;;-145.57;100.00
50338;BME280;46221;51.178;5.900;2023-02-16T14:35:33;59360.63;;;-145.57;100.00
50338;BME280;46221;51.178;5.900;2023-02-16T14:38:03;59360.63;;;-145.57;100.00
50338;BME280;46221;51.178;5.900;2023-02-16T14:43:03;59360.63;;;-145.57;100.00
50338;BME280;46221;51.178;5.900;2023-02-16T14:57:03;59360.63;;;-145.57;100.00
50338;BME280;46221;51.178;5.900;2023-02-16T15:04:54;59360.63;;;-145.57;100.00
50338;BME280;46221;51.178;5.900;2023-02-16T15:07:22;59360.63;;;-145.57;100.00
50338;BME280;46221;51.178;5.900;2023-02-16T15:09:55;59360.63;;;-145.57;100.00
50338;BME280;46221;51.178;5.900;2023-02-16T15:12:27;59360.63;;;-145.57;100.00
50338;BME280;46221;51.178;5.900;2023-02-16T15:15:05;59360.63;;;-145.57;100.00
50338;BME280;46221;51.178;5.900;2023-02-16T15:17:40;59360.63;;;-145.57;100.00
50338;BME280;46221;51.178;5.900;2023-02-16T15:22:50;59360.63;;;-145.57;100.00
50338;BME280;46221;51.178;5.900;2023-02-16T15:25:25;59360.63;;;-145.57;100.00
50338;BME280;46221;51.178;5.900;2023-02-16T15:28:36;59360.63;;;-145.57;100.00
50338;BME280;46221;51.178;5.900;2023-02-16T15:30:48;59360.63;;;-145.57;100.00